Time;durP1;ratioP1;P1;durP2;ratioP2;P2;SDS_P1;SDS_P2;PMS_P1;PMS_P2;Temp;Humidity;BMP_temperature;BMP_pressure;BME280_temperature;BME280_humidity;BME280_pressure;Samples;Min_cycle;Max_cycle;Signal;HPM_P1;HPM_P2
2023/05/05 00:00:53;;;;;;;6.07;2.90;;;;;;;23.68;51.83;99530.34;5073875;28;20120;-68
2023/05/05 00:03:22;;;;;;;7.97;3.13;;;;;;;23.66;51.87;99536.75;5073528;28;20032;-67
2023/05/05 00:05:48;;;;;;;5.47;3.15;;;;;;;23.64;51.82;99531.56;5073870;28;20024;-68
2023/05/05 00:08:14;;;;;;;5.68;2.70;;;;;;;23.66;51.75;99526.09;5073733;28;20024;-68
2023/05/05 00:10:41;;;;;;;5.43;2.67;;;;;;;23.62;51.81;99524.63;5073576;28;20108;-69
2023/05/05 00:13:07;;;;;;;5.80;2.95;;;;;;;23.62;51.96;99519.31;5073649;28;20032;-68
2023/05/05 00:15:32;;;;;;;5.47;2.90;;;;;;;23.63;51.79;99526.34;5073647;28;20025;-67
2023/05/05 00:17:58;;;;;;;9.88;3.35;;;;;;;23.60;52.07;99520.25;5073214;28;20028;-69
2023/05/05 00:20:23;;;;;;;6.38;2.75;;;;;;;23.56;51.89;99516.13;5055623;28;20131;-68
2023/05/05 00:22:49;;;;;;;4.97;2.65;;;;;;;23.53;51.76;99510.16;5073580;28;20039;-67
2023/05/05 00:25:14;;;;;;;6.35;2.70;;;;;;;23.49;52.01;99501.53;5073455;28;20074;-68
2023/05/05 00:27:39;;;;;;;4.57;2.40;;;;;;;23.47;52.15;99500.78;5073401;28;20476;-67
2023/05/05 00:30:05;;;;;;;4.63;2.40;;;;;;;23.43;52.05;99500.16;5073148;28;20025;-68
2023/05/05 00:32:31;;;;;;;4.55;2.30;;;;;;;23.41;52.11;99495.88;5072916;28;20480;-67
2023/05/05 00:34:56;;;;;;;4.53;2.60;;;;;;;23.39;51.91;99497.81;5073260;28;20035;-68
2023/05/05 00:37:22;;;;;;;4.28;2.35;;;;;;;23.34;52.21;99490.13;5073037;28;20032;-69
2023/05/05 00:39:47;;;;;;;4.10;2.40;;;;;;;23.35;52.16;99481.22;5073121;28;20027;-68
2023/05/05 00:42:12;;;;;;;4.57;2.03;;;;;;;23.37;51.97;99483.75;5073116;28;20021;-68
2023/05/05 00:44:40;;;;;;;4.03;2.10;;;;;;;23.32;51.95;99484.94;5072855;28;20024;-69
2023/05/05 00:47:07;;;;;;;3.97;2.17;;;;;;;23.28;51.91;99475.44;5072704;28;20439;-68
2023/05/05 00:49:33;;;;;;;4.05;2.40;;;;;;;23.28;51.98;99478.09;5064089;28;20036;-70
2023/05/05 00:51:59;;;;;;;6.00;2.47;;;;;;;23.28;52.01;99472.78;5053487;28;20029;-70
2023/05/05 00:54:25;;;;;;;5.13;2.60;;;;;;;23.26;52.12;99472.03;5072702;28;20031;-69
2023/05/05 00:56:52;;;;;;;3.95;2.10;;;;;;;23.26;52.04;99472.03;5060912;28;20464;-69
2023/05/05 00:59:18;;;;;;;4.32;2.10;;;;;;;23.25;51.96;99470.31;5052558;28;20025;-68
2023/05/05 01:01:44;;;;;;;3.50;2.13;;;;;;;23.24;51.84;99460.63;5052462;28;20029;-69
2023/05/05 01:04:09;;;;;;;5.72;2.70;;;;;;;23.23;51.91;99466.91;5052814;28;20573;-69
2023/05/05 01:06:59;;;;;;;4.35;2.08;;;;;;;23.22;51.85;99454.56;5052588;28;20025;-68
2023/05/05 01:09:54;;;;;;;4.25;2.00;;;;;;;23.22;51.90;99457.22;5052476;28;20101;-68
2023/05/05 01:12:32;;;;;;;4.63;2.10;;;;;;;23.20;51.81;99456.50;5045068;28;20095;-69
2023/05/05 01:15:07;;;;;;;5.95;1.80;;;;;;;23.19;51.79;99444.13;5052148;28;20029;-68
2023/05/05 01:17:40;;;;;;;3.53;2.13;;;;;;;23.18;51.74;99443.28;5052626;28;20021;-67
2023/05/05 01:20:24;;;;;;;4.47;2.33;;;;;;;23.15;51.76;99442.66;5072191;28;20044;-68
2023/05/05 01:22:57;;;;;;;3.58;1.80;;;;;;;23.15;51.77;99437.34;5072421;28;20047;-68
2023/05/05 01:25:25;;;;;;;4.35;1.80;;;;;;;23.12;51.82;99435.75;5072106;28;20029;-69
2023/05/05 01:28:09;;;;;;;4.88;2.00;;;;;;;23.13;51.75;99439.22;5072186;28;20035;-67
2023/05/05 01:31:22;;;;;;;4.40;1.70;;;;;;;23.10;52.03;99436.81;5071858;28;20036;-67
2023/05/05 01:34:08;;;;;;;3.13;1.75;;;;;;;23.09;51.81;99432.44;5062866;28;20037;-67
2023/05/05 01:36:41;;;;;;;;;;;;;;;23.07;51.95;99432.56;5072308;28;20032;-69
2023/05/05 01:39:10;;;;;;;3.95;1.73;;;;;;;23.07;51.93;99422.72;5072211;28;19975;-69
2023/05/05 01:41:42;;;;;;;3.92;1.55;;;;;;;23.05;52.04;99432.66;5072214;28;20021;-68
2023/05/05 01:44:09;;;;;;;3.40;1.80;;;;;;;23.05;52.00;99431.81;5071640;28;20039;-68
2023/05/05 01:46:35;;;;;;;4.30;2.10;;;;;;;23.02;51.97;99427.56;5071929;28;20050;-68
2023/05/05 01:49:02;;;;;;;3.97;2.00;;;;;;;23.02;51.75;99424.91;5072071;28;20035;-69
2023/05/05 01:51:29;;;;;;;3.85;1.58;;;;;;;23.01;51.81;99423.16;5072026;28;20044;-67
2023/05/05 01:54:00;;;;;;;3.00;1.77;;;;;;;23.02;51.91;99419.56;5071818;28;20060;-69
2023/05/05 01:56:28;;;;;;;4.15;2.15;;;;;;;23.00;51.92;99417.97;5072295;28;20108;-68
2023/05/05 01:58:55;;;;;;;4.95;1.70;;;;;;;23.00;52.07;99423.31;5071589;28;20108;-69
2023/05/05 02:01:23;;;;;;;2.85;1.70;;;;;;;23.00;52.06;99418.81;5071447;28;20435;-69
2023/05/05 02:03:50;;;;;;;4.75;1.95;;;;;;;22.99;51.85;99422.44;5071794;28;20031;-69
2023/05/05 02:06:18;;;;;;;5.75;2.00;;;;;;;22.98;52.08;99415.41;5071515;28;20116;-69
2023/05/05 02:08:44;;;;;;;4.95;2.17;;;;;;;22.98;52.09;99420.75;5071876;28;20017;-69
2023/05/05 02:11:11;;;;;;;2.25;1.67;;;;;;;22.96;51.92;99412.03;5071668;28;20025;-69
2023/05/05 02:13:37;;;;;;;4.55;2.00;;;;;;;22.95;52.23;99410.28;5071526;28;20040;-68
2023/05/05 02:16:04;;;;;;;4.28;2.00;;;;;;;22.94;51.96;99413.91;5071687;28;20039;-67
2023/05/05 02:18:34;;;;;;;4.38;1.98;;;;;;;22.93;52.21;99417.53;5071488;28;20075;-68
2023/05/05 02:21:00;;;;;;;3.25;1.80;;;;;;;22.91;52.05;99422.13;5071493;28;20044;-68
2023/05/05 02:23:25;;;;;;;4.82;1.83;;;;;;;22.90;52.22;99423.09;5071748;28;20024;-67
2023/05/05 02:25:55;;;;;;;4.03;1.90;;;;;;;22.90;52.16;99431.91;5053551;28;20523;-67
2023/05/05 02:28:53;;;;;;;4.50;2.20;;;;;;;22.90;52.19;99431.09;5071316;28;20028;-69
2023/05/05 02:31:21;;;;;;;4.10;1.98;;;;;;;22.89;52.29;99426.69;5057999;28;20045;-69
2023/05/05 02:33:49;;;;;;;3.35;1.98;;;;;;;22.88;52.23;99425.84;5053451;28;20017;-67
2023/05/05 02:36:20;;;;;;;3.25;1.75;;;;;;;22.87;52.24;99424.16;5071555;28;20035;-69
2023/05/05 02:38:51;;;;;;;4.07;1.92;;;;;;;22.88;52.26;99420.53;5071310;28;20491;-67
2023/05/05 02:41:20;;;;;;;3.58;1.85;;;;;;;22.86;52.34;99426.94;5071421;28;20033;-68
2023/05/05 02:43:48;;;;;;;3.22;1.77;;;;;;;22.86;52.17;99421.59;5070928;28;20074;-67
2023/05/05 02:46:14;;;;;;;3.35;2.10;;;;;;;22.85;52.35;99419.91;5071102;28;20465;-68
2023/05/05 02:48:40;;;;;;;3.35;1.80;;;;;;;22.85;52.19;99419.91;5053448;28;20119;-67
2023/05/05 02:51:06;;;;;;;2.78;1.60;;;;;;;22.85;52.21;99425.22;5071550;28;20091;-69
2023/05/05 02:53:33;;;;;;;3.85;1.75;;;;;;;22.85;52.23;99419.91;5071298;28;20032;-68
2023/05/05 02:56:26;;;;;;;3.65;2.03;;;;;;;22.82;52.27;99420.09;5066723;28;20416;-69
2023/05/05 02:59:06;;;;;;;3.13;2.00;;;;;;;22.82;52.25;99420.09;5051335;28;20036;-68
2023/05/05 03:01:40;;;;;;;3.55;1.95;;;;;;;22.79;52.27;99416.72;5051049;28;20527;-68
2023/05/05 03:04:16;;;;;;;3.13;1.83;;;;;;;22.80;52.34;99428.19;5051264;28;20032;-69
2023/05/05 03:06:48;;;;;;;3.92;1.85;;;;;;;22.79;52.08;99421.16;5050975;28;20033;-67
2023/05/05 03:09:50;;;;;;;2.97;2.00;;;;;;;22.78;52.30;99430.09;5062632;28;20036;-69
2023/05/05 03:12:21;;;;;;;3.28;1.88;;;;;;;22.76;52.29;99427.56;4969935;28;20101;-68
2023/05/05 03:14:50;;;;;;;2.88;2.20;;;;;;;22.76;52.34;99427.56;4972127;28;20038;-68
2023/05/05 03:17:18;;;;;;;3.40;1.70;;;;;;;22.75;52.36;99431.16;4973669;28;20403;-69
2023/05/05 03:19:45;;;;;;;3.08;1.63;;;;;;;22.75;52.23;99430.31;4973624;28;20110;-68
2023/05/05 03:22:11;;;;;;;3.70;1.80;;;;;;;22.75;52.41;99425.00;4973766;28;20049;-68
2023/05/05 03:24:36;;;;;;;3.13;1.85;;;;;;;22.73;52.33;99425.13;4973463;28;20035;-69
2023/05/05 03:27:02;;;;;;;3.35;1.60;;;;;;;22.72;52.28;99422.56;4956865;28;20061;-68
2023/05/05 03:29:28;;;;;;;2.97;1.58;;;;;;;22.73;52.30;99426.91;4973452;28;20042;-68
2023/05/05 03:31:54;;;;;;;2.97;1.80;;;;;;;22.70;52.29;99425.31;4973413;28;20098;-68
2023/05/05 03:34:20;;;;;;;3.53;1.88;;;;;;;22.70;52.36;99432.47;4973491;28;20039;-68
2023/05/05 03:36:45;;;;;;;2.85;1.73;;;;;;;22.68;52.53;99432.56;4973280;28;20037;-68
2023/05/05 03:39:11;;;;;;;3.15;1.70;;;;;;;22.67;52.55;99428.19;4973391;28;20546;-68
2023/05/05 03:41:36;;;;;;;4.72;2.33;;;;;;;22.67;52.33;99438.84;4972750;28;20410;-68
2023/05/05 03:44:01;;;;;;;3.13;2.03;;;;;;;22.66;52.52;99430.00;4957104;28;20170;-67
2023/05/05 03:46:27;;;;;;;2.55;1.65;;;;;;;22.65;52.43;99430.97;4973127;28;20031;-68
2023/05/05 03:48:52;;;;;;;3.38;1.67;;;;;;;22.66;52.47;99434.44;5070370;28;20037;-68
2023/05/05 03:51:18;;;;;;;3.10;1.50;;;;;;;22.64;52.15;99433.72;5074137;28;20484;-69
2023/05/05 03:53:43;;;;;;;3.40;1.85;;;;;;;22.62;52.48;99431.16;5074230;28;20036;-68
2023/05/05 03:56:08;;;;;;;3.30;1.73;;;;;;;22.62;52.44;99435.63;5067679;28;20025;-68
2023/05/05 03:58:34;;;;;;;3.22;2.00;;;;;;;22.62;52.45;99435.63;5061473;28;20062;-69
2023/05/05 04:00:59;;;;;;;3.40;1.92;;;;;;;22.62;52.47;99438.31;5073981;28;20017;-68
2023/05/05 04:03:25;;;;;;;2.55;1.70;;;;;;;22.61;52.45;99433.94;5073888;28;20020;-69
2023/05/05 04:05:50;;;;;;;3.05;1.92;;;;;;;22.62;52.35;99438.31;5073835;28;20028;-69
2023/05/05 04:08:16;;;;;;;2.83;1.63;;;;;;;22.60;52.48;99438.41;5073699;28;20131;-68
2023/05/05 04:10:41;;;;;;;4.07;2.00;;;;;;;22.58;52.58;99442.97;5073333;28;20020;-69
2023/05/05 04:13:07;;;;;;;2.78;1.50;;;;;;;22.58;52.51;99439.47;5073764;28;20021;-68
2023/05/05 04:15:33;;;;;;;3.70;1.60;;;;;;;22.58;52.33;99444.78;5073557;28;20036;-68
2023/05/05 04:17:58;;;;;;;2.97;1.90;;;;;;;22.55;52.41;99442.34;5073587;28;20032;-68
2023/05/05 04:20:23;;;;;;;3.13;1.85;;;;;;;22.55;52.43;99445.00;5073565;28;20072;-68
2023/05/05 04:22:50;;;;;;;3.40;1.85;;;;;;;22.52;52.34;99452.22;5073428;28;20496;-68
2023/05/05 04:25:15;;;;;;;3.03;1.70;;;;;;;22.51;52.64;99445.16;5072592;28;20039;-68
2023/05/05 04:27:41;;;;;;;3.60;1.90;;;;;;;22.52;52.58;99457.53;5055359;28;20496;-70
2023/05/05 04:30:08;;;;;;;3.50;1.75;;;;;;;22.51;52.37;99445.16;5073293;28;20158;-68
2023/05/05 04:32:33;;;;;;;3.33;1.90;;;;;;;22.50;52.33;99453.22;5073309;28;20392;-68
2023/05/05 04:34:58;;;;;;;3.50;1.73;;;;;;;22.50;52.43;99454.09;5073170;28;20035;-69
2023/05/05 04:37:24;;;;;;;4.72;2.00;;;;;;;22.47;52.31;99448.97;5072958;28;20028;-68
2023/05/05 04:39:50;;;;;;;2.70;1.60;;;;;;;22.46;52.54;99451.75;5072777;28;20468;-69
2023/05/05 04:42:15;;;;;;;3.58;1.80;;;;;;;22.45;52.45;99458.88;5073253;28;20054;-69
2023/05/05 04:44:41;;;;;;;3.15;1.70;;;;;;;22.45;52.46;99460.66;5072821;28;20111;-69
2023/05/05 04:47:06;;;;;;;2.78;1.70;;;;;;;22.44;52.43;99459.84;5072866;28;20108;-68
2023/05/05 04:49:31;;;;;;;3.67;2.17;;;;;;;22.43;52.38;99458.13;5072889;28;20021;-69
2023/05/05 04:51:57;;;;;;;2.70;1.73;;;;;;;22.43;52.46;99463.44;5072774;28;20036;-68
2023/05/05 04:54:22;;;;;;;2.90;1.75;;;;;;;22.40;52.37;99461.84;5072585;28;20021;-70
2023/05/05 04:56:48;;;;;;;3.58;1.90;;;;;;;22.39;52.53;99464.59;5061637;28;20029;-68
2023/05/05 04:59:14;;;;;;;2.92;1.98;;;;;;;22.38;52.36;99470.88;5052793;28;20017;-69
2023/05/05 05:01:41;;;;;;;5.10;2.15;;;;;;;22.36;52.08;99467.44;5052784;28;20048;-69
2023/05/05 05:04:07;;;;;;;2.92;1.60;;;;;;;22.36;52.52;99472.78;5052645;28;20477;-68
2023/05/05 05:06:33;;;;;;;3.33;1.60;;;;;;;22.36;52.37;99470.09;5052391;28;20053;-67
2023/05/05 05:08:58;;;;;;;3.47;1.70;;;;;;;22.36;52.39;99478.09;5052301;28;20037;-69
2023/05/05 05:11:24;;;;;;;2.85;1.40;;;;;;;22.32;52.22;99482.75;5052628;28;20024;-68
2023/05/05 05:13:49;;;;;;;3.42;1.50;;;;;;;22.32;52.25;99482.75;5052480;28;20477;-69
2023/05/05 05:16:15;;;;;;;2.88;1.52;;;;;;;22.32;52.48;99493.41;5052316;28;20028;-68
2023/05/05 05:18:40;;;;;;;2.28;1.40;;;;;;;22.32;52.27;99488.06;5068988;28;20024;-68
2023/05/05 05:21:06;;;;;;;2.38;1.52;;;;;;;22.30;52.23;99490.00;5072085;28;20049;-69
2023/05/05 05:23:31;;;;;;;2.00;1.33;;;;;;;22.32;52.34;99497.88;5072242;28;20035;-70
2023/05/05 05:25:57;;;;;;;2.60;1.35;;;;;;;22.32;52.09;99508.50;5071875;28;20116;-67
2023/05/05 05:28:22;;;;;;;2.88;1.55;;;;;;;22.29;52.21;99504.25;5072477;28;20020;-68
2023/05/05 05:30:48;;;;;;;2.28;1.30;;;;;;;22.29;52.27;99512.22;5072030;28;20033;-66
2023/05/05 05:33:13;;;;;;;3.78;1.80;;;;;;;22.27;52.19;99507.00;5068859;28;20078;-67
2023/05/05 05:35:39;;;;;;;2.42;1.45;;;;;;;22.26;52.21;99507.97;5071832;28;20113;-67
2023/05/05 05:38:05;;;;;;;2.70;1.60;;;;;;;22.28;52.18;99510.53;5071516;28;20416;-68
2023/05/05 05:40:30;;;;;;;3.45;1.48;;;;;;;22.25;52.09;99513.38;5054007;28;20037;-69
2023/05/05 05:42:56;;;;;;;2.05;1.38;;;;;;;22.26;52.16;99520.38;5071985;28;20055;-69
2023/05/05 05:45:21;;;;;;;3.00;1.40;;;;;;;22.28;52.04;99521.16;5071995;28;20036;-70
2023/05/05 05:47:47;;;;;;;4.75;1.67;;;;;;;22.25;52.02;99514.22;5072096;28;20043;-69
2023/05/05 05:50:12;;;;;;;2.55;1.30;;;;;;;22.24;51.76;99516.97;5071846;28;20068;-68
2023/05/05 05:52:38;;;;;;;2.25;1.30;;;;;;;22.24;52.14;99523.13;5072010;28;20043;-68
2023/05/05 05:55:04;;;;;;;2.25;1.48;;;;;;;22.23;51.91;99516.13;5071931;28;20515;-69
2023/05/05 05:57:29;;;;;;;2.63;1.58;;;;;;;22.19;52.09;99519.94;5054851;28;20029;-68
2023/05/05 05:59:55;;;;;;;3.28;1.60;;;;;;;22.22;52.12;99525.03;5051984;28;20033;-68
2023/05/05 06:02:20;;;;;;;2.05;1.52;;;;;;;22.20;51.96;99519.00;5051723;28;20047;-68
2023/05/05 06:04:46;;;;;;;2.03;1.30;;;;;;;22.18;52.03;99520.88;5068885;28;20039;-69
2023/05/05 06:07:11;;;;;;;3.10;1.40;;;;;;;22.18;52.03;99518.22;5071798;28;20040;-69
2023/05/05 06:09:37;;;;;;;3.28;1.67;;;;;;;22.18;51.99;99523.53;5071982;28;20043;-67
2023/05/05 06:12:03;;;;;;;3.08;1.60;;;;;;;22.19;51.89;99525.25;5071908;28;20020;-68
2023/05/05 06:14:28;;;;;;;2.83;1.58;;;;;;;22.20;51.93;99526.09;5071728;28;20031;-69
2023/05/05 06:16:54;;;;;;;2.85;1.33;;;;;;;22.20;51.85;99531.41;5071671;28;20396;-68
2023/05/05 06:19:20;;;;;;;2.53;1.40;;;;;;;22.18;51.99;99534.16;5071273;28;20093;-69
2023/05/05 06:21:46;;;;;;;2.42;1.48;;;;;;;22.18;52.01;99534.16;5071721;28;20401;-69
2023/05/05 06:24:11;;;;;;;2.08;1.17;;;;;;;22.19;51.89;99541.22;5071481;28;20021;-70
2023/05/05 06:26:36;;;;;;;2.83;1.50;;;;;;;22.19;51.80;99546.53;5071555;28;20480;-69
2023/05/05 06:29:02;;;;;;;3.08;1.40;;;;;;;22.18;52.13;99546.63;5071641;28;20017;-67
2023/05/05 06:31:27;;;;;;;3.60;1.60;;;;;;;22.19;51.85;99541.22;5071799;28;20027;-68
2023/05/05 06:33:53;;;;;;;2.63;1.65;;;;;;;22.20;51.75;99548.22;5071283;28;20028;-66
2023/05/05 06:36:18;;;;;;;2.45;1.33;;;;;;;22.19;51.89;99554.50;5071725;28;20036;-69
2023/05/05 06:38:44;;;;;;;2.13;1.30;;;;;;;22.21;51.49;99565.88;5071445;28;20043;-68
2023/05/05 06:41:09;;;;;;;1.98;1.35;;;;;;;22.20;51.89;99558.84;5071606;28;20013;-67
2023/05/05 06:43:34;;;;;;;2.22;1.30;;;;;;;22.20;51.79;99563.31;5071614;28;20350;-68
2023/05/05 06:46:00;;;;;;;2.22;1.27;;;;;;;22.21;51.93;99559.69;5071363;28;20021;-69
2023/05/05 06:48:25;;;;;;;2.05;1.20;;;;;;;22.20;51.81;99558.00;5072856;28;20853;-69
2023/05/05 06:50:51;;;;;;;2.67;1.25;;;;;;;22.19;51.66;99557.16;5075161;28;20430;-69
2023/05/05 06:53:16;;;;;;;3.35;1.50;;;;;;;22.20;51.65;99560.66;5075077;28;20028;-68
2023/05/05 06:55:43;;;;;;;2.47;1.30;;;;;;;22.20;51.76;99569.50;5075228;28;20024;-68
2023/05/05 06:58:09;;;;;;;2.13;1.38;;;;;;;22.22;51.72;99564.91;5074995;28;20025;-69
2023/05/05 07:00:34;;;;;;;2.50;1.23;;;;;;;22.23;51.68;99568.44;5075151;28;20499;-69
2023/05/05 07:02:59;;;;;;;2.25;1.40;;;;;;;22.22;51.84;99567.56;5056259;28;20107;-68
2023/05/05 07:05:25;;;;;;;2.47;1.40;;;;;;;22.23;51.68;99569.28;5074995;28;20028;-69
2023/05/05 07:07:54;;;;;;;2.30;1.38;;;;;;;22.25;51.69;99575.38;5074865;28;20062;-68
2023/05/05 07:10:21;;;;;;;2.80;1.52;;;;;;;22.27;51.73;99576.09;5074943;28;20052;-69
2023/05/05 07:12:47;;;;;;;3.22;1.40;;;;;;;22.26;51.65;99569.09;5074792;28;20036;-69
2023/05/05 07:15:13;;;;;;;2.55;1.10;;;;;;;22.29;51.54;99575.16;5074566;28;20054;-68
2023/05/05 07:17:39;;;;;;;2.67;1.30;;;;;;;22.29;51.52;99572.50;5074392;28;20028;-69
2023/05/05 07:20:05;;;;;;;2.05;1.30;;;;;;;22.36;51.61;99568.47;5074437;28;20485;-69
2023/05/05 07:22:31;;;;;;;1.48;1.10;;;;;;;22.37;51.38;99570.19;5074533;28;20135;-68
2023/05/05 07:24:56;;;;;;;4.40;1.50;;;;;;;22.36;51.33;99579.97;5074709;28;20111;-68
2023/05/05 07:27:22;;;;;;;3.30;1.33;;;;;;;22.39;51.26;99584.25;5074511;28;20469;-68
2023/05/05 07:29:47;;;;;;;2.63;1.48;;;;;;;22.33;51.62;99593.44;5074570;28;20012;-68
2023/05/05 07:32:13;;;;;;;1.90;1.30;;;;;;;22.40;51.25;99604.53;5074204;28;20008;-68
2023/05/05 07:34:39;;;;;;;2.47;1.25;;;;;;;22.40;51.22;99601.88;5074234;28;20476;-69
2023/05/05 07:37:05;;;;;;;4.43;1.50;;;;;;;22.40;51.34;99607.22;5074443;28;20036;-67
2023/05/05 07:39:31;;;;;;;3.05;1.40;;;;;;;22.40;51.19;99604.53;5074405;28;20052;-68
2023/05/05 07:41:57;;;;;;;2.90;1.55;;;;;;;22.40;51.34;99599.22;5074479;28;20036;-67
2023/05/05 07:44:22;;;;;;;3.08;1.40;;;;;;;22.40;51.31;99601.88;5074164;28;20028;-67
2023/05/05 07:46:48;;;;;;;3.60;1.42;;;;;;;22.46;51.19;99601.50;5055752;28;20484;-69
2023/05/05 07:49:13;;;;;;;2.20;1.33;;;;;;;22.49;51.32;99611.94;5073907;28;20029;-68
2023/05/05 07:51:39;;;;;;;2.47;1.45;;;;;;;22.51;51.38;99610.03;5074199;28;20020;-68
2023/05/05 07:54:05;;;;;;;2.03;1.20;;;;;;;22.52;51.19;99610.91;5074150;28;20044;-67
2023/05/05 07:56:30;;;;;;;2.92;1.20;;;;;;;22.53;51.19;99615.28;5065259;28;20492;-69
2023/05/05 07:58:56;;;;;;;3.83;1.50;;;;;;;22.55;50.99;99615.19;5054020;28;20086;-69
2023/05/05 08:01:21;;;;;;;4.25;1.35;;;;;;;22.55;51.03;99612.53;5058147;28;20523;-70
2023/05/05 08:03:47;;;;;;;4.07;1.50;;;;;;;22.57;51.13;99607.94;5065990;28;20396;-70
2023/05/05 08:06:20;;;;;;;2.45;1.30;;;;;;;22.59;51.20;99617.53;5036106;28;20021;-69
2023/05/05 08:08:47;;;;;;;2.50;1.50;;;;;;;22.59;51.01;99611.34;5053793;28;20025;-69
2023/05/05 08:11:14;;;;;;;2.47;1.42;;;;;;;22.60;51.20;99607.72;5057760;28;20026;-68
2023/05/05 08:13:41;;;;;;;2.85;1.65;;;;;;;22.61;51.10;99615.63;5073743;28;20021;-70
2023/05/05 08:16:07;;;;;;;2.15;1.48;;;;;;;22.64;51.03;99603.94;5073342;28;20060;-69
2023/05/05 08:18:36;;;;;;;3.03;1.25;;;;;;;22.63;51.09;99607.53;5073438;28;20052;-69
2023/05/05 08:21:05;;;;;;;2.80;1.63;;;;;;;22.63;51.18;99607.53;5073312;28;20048;-67
2023/05/05 08:23:31;;;;;;;2.40;1.30;;;;;;;22.62;51.11;99611.16;5073418;28;20028;-69
2023/05/05 08:25:56;;;;;;;2.83;1.52;;;;;;;22.64;50.99;99604.78;5073362;28;20021;-68
2023/05/05 08:28:24;;;;;;;3.10;1.45;;;;;;;22.66;51.20;99607.31;5073345;28;20465;-68
2023/05/05 08:30:50;;;;;;;2.92;1.60;;;;;;;22.66;51.15;99607.31;5072680;28;20086;-69
2023/05/05 08:33:15;;;;;;;3.40;1.35;;;;;;;22.67;51.22;99603.75;5073178;28;20488;-67
2023/05/05 08:35:41;;;;;;;3.47;1.40;;;;;;;22.67;51.21;99614.38;5073410;28;20029;-68
2023/05/05 08:38:07;;;;;;;3.88;1.90;;;;;;;22.71;51.44;99609.72;5072812;28;20475;-70
2023/05/05 08:40:33;;;;;;;5.00;2.10;;;;;;;22.72;51.29;99612.28;5073257;28;20043;-69
2023/05/05 08:43:00;;;;;;;5.32;2.20;;;;;;;22.72;51.27;99604.28;5072671;28;20472;-67
2023/05/05 08:45:27;;;;;;;4.28;2.10;;;;;;;22.74;51.35;99610.34;5072626;28;20154;-68
2023/05/05 08:47:56;;;;;;;4.40;2.22;;;;;;;22.73;51.36;99598.00;5072944;28;20381;-68
2023/05/05 08:50:25;;;;;;;7.15;2.30;;;;;;;22.74;51.25;99605.03;5062475;28;20501;-68
2023/05/05 08:53:04;;;;;;;3.55;1.80;;;;;;;22.75;51.36;99601.41;5052824;28;20047;-69
2023/05/05 08:55:33;;;;;;;6.30;2.20;;;;;;;22.76;51.23;99608.44;5053070;28;20040;-69
2023/05/05 08:58:02;;;;;;;3.60;2.03;;;;;;;22.76;51.40;99608.44;5055026;28;20021;-69
2023/05/05 09:00:28;;;;;;;5.68;2.10;;;;;;;22.78;51.39;99611.88;5072380;28;20447;-69
2023/05/05 09:02:58;;;;;;;5.63;2.28;;;;;;;22.77;51.37;99610.13;5054639;28;20469;-69
2023/05/05 09:05:25;;;;;;;4.68;2.22;;;;;;;22.79;51.39;99612.69;5072323;28;20111;-69
2023/05/05 09:07:50;;;;;;;3.45;2.00;;;;;;;22.80;51.19;99615.25;5072624;28;20025;-69
2023/05/05 09:10:16;;;;;;;6.85;2.13;;;;;;;22.79;51.22;99607.38;5071762;28;20032;-68
2023/05/05 09:12:42;;;;;;;5.13;2.15;;;;;;;22.82;51.27;99614.31;5072257;28;20020;-69
2023/05/05 09:15:12;;;;;;;6.68;2.47;;;;;;;22.79;51.01;99613.56;5071884;28;20051;-68
2023/05/05 09:17:38;;;;;;;5.35;2.30;;;;;;;22.82;50.94;99611.66;5072369;28;20021;-68
2023/05/05 09:20:06;;;;;;;5.10;2.00;;;;;;;22.84;51.09;99615.03;5072234;28;20544;-68
2023/05/05 09:22:38;;;;;;;7.55;2.33;;;;;;;22.85;51.12;99622.09;5072125;28;20434;-68
2023/05/05 09:25:06;;;;;;;6.18;2.47;;;;;;;22.86;51.25;99613.16;5069922;28;20028;-69
2023/05/05 09:27:47;;;;;;;5.45;2.67;;;;;;;22.86;51.18;99619.31;5066169;28;20082;-68
2023/05/05 09:30:25;;;;;;;4.57;2.00;;;;;;;22.88;51.10;99619.22;5069831;28;20044;-68
2023/05/05 09:32:53;;;;;;;4.13;1.92;;;;;;;22.88;51.11;99621.88;5070945;28;20104;-68
2023/05/05 09:35:20;;;;;;;4.55;2.35;;;;;;;22.88;51.08;99625.41;5071442;28;20032;-69
2023/05/05 09:37:46;;;;;;;6.00;2.00;;;;;;;22.89;50.99;99620.91;5050663;28;20062;-70
2023/05/05 09:40:13;;;;;;;3.00;1.95;;;;;;;22.91;50.87;99616.38;5063218;28;20024;-68
2023/05/05 09:42:39;;;;;;;7.28;3.65;;;;;;;22.92;51.31;99618.06;5067115;28;20028;-67
2023/05/05 09:45:16;;;;;;;7.43;3.90;;;;;;;22.93;51.03;99619.75;5071441;28;20469;-70
2023/05/05 09:47:42;;;;;;;9.45;4.82;;;;;;;22.92;51.06;99613.56;5070926;28;20034;-68
2023/05/05 09:50:10;;;;;;;6.82;3.55;;;;;;;22.96;50.97;99624.03;5070714;28;20032;-68
2023/05/05 09:52:36;;;;;;;5.47;2.85;;;;;;;22.95;51.08;99617.84;5070581;28;20033;-68
2023/05/05 09:55:01;;;;;;;7.03;3.28;;;;;;;22.96;51.09;99613.38;5071320;28;20524;-68
2023/05/05 09:57:29;;;;;;;7.10;2.53;;;;;;;22.97;50.93;99609.75;5070421;28;20027;-69
2023/05/05 10:00:00;;;;;;;6.60;2.70;;;;;;;22.99;51.02;99611.38;5070297;28;20481;-69
2023/05/05 10:02:31;;;;;;;4.40;2.50;;;;;;;22.98;51.08;99617.66;5071103;28;20562;-69
2023/05/05 10:05:11;;;;;;;3.78;2.35;;;;;;;22.98;51.13;99611.47;5070504;28;20025;-66
2023/05/05 10:07:38;;;;;;;5.43;2.40;;;;;;;22.99;50.96;99608.72;5064865;28;20029;-69
2023/05/05 10:10:06;;;;;;;3.95;2.78;;;;;;;23.02;51.04;99608.50;5065539;28;20036;-68
2023/05/05 10:12:35;;;;;;;5.82;2.42;;;;;;;23.02;51.11;99612.97;5070267;28;20020;-69
2023/05/05 10:15:02;;;;;;;7.03;3.45;;;;;;;23.02;50.99;99607.66;5070516;28;20045;-70
2023/05/05 10:17:30;;;;;;;10.82;4.80;;;;;;;23.02;51.02;99605.84;5070772;28;20036;-69
2023/05/05 10:19:58;;;;;;;10.05;5.00;;;;;;;23.02;50.93;99605.84;5070865;28;20131;-67
2023/05/05 10:22:25;;;;;;;9.07;5.40;;;;;;;23.02;51.13;99603.19;5070945;28;20076;-69
2023/05/05 10:24:57;;;;;;;13.65;5.95;;;;;;;23.05;51.00;99600.31;5074864;28;20035;-70
2023/05/05 10:27:24;;;;;;;10.27;5.63;;;;;;;23.06;51.13;99596.69;5074164;28;20024;-66
2023/05/05 10:30:06;;;;;;;11.93;6.22;;;;;;;23.06;51.02;99591.38;5074934;28;20392;-70
2023/05/05 10:32:39;;;;;;;4.68;2.75;;;;;;;23.07;51.13;99587.75;5067204;28;20037;-69
2023/05/05 10:35:07;;;;;;;10.02;4.90;;;;;;;23.07;50.98;99579.75;5074628;28;20386;-68
2023/05/05 10:37:36;;;;;;;7.30;2.85;;;;;;;23.07;51.02;99582.41;5074390;28;20016;-68
2023/05/05 10:40:02;;;;;;;7.05;3.55;;;;;;;23.09;50.96;99581.50;5074530;28;20167;-68
2023/05/05 10:42:28;;;;;;;5.97;3.80;;;;;;;23.10;51.03;99575.19;5074070;28;20020;-69
2023/05/05 10:44:54;;;;;;;5.85;3.65;;;;;;;23.11;51.01;99582.22;5071806;28;20514;-69
2023/05/05 10:47:21;;;;;;;8.98;4.65;;;;;;;23.11;51.16;99582.22;5074021;28;20025;-68
2023/05/05 10:49:58;;;;;;;7.85;4.57;;;;;;;23.10;51.00;99578.69;5072593;28;20024;-69
2023/05/05 10:52:36;;;;;;;6.80;3.67;;;;;;;23.13;51.13;99572.31;5074491;28;20056;-69
2023/05/05 10:55:15;;;;;;;5.45;3.72;;;;;;;23.13;51.14;99567.00;5066305;28;20111;-71
2023/05/05 10:57:43;;;;;;;5.75;3.42;;;;;;;23.14;51.05;99574.03;5072643;28;20384;-67
2023/05/05 11:00:09;;;;;;;6.50;2.47;;;;;;;23.15;51.13;99570.41;5060635;28;20056;-66
2023/05/05 11:02:35;;;;;;;5.30;3.08;;;;;;;23.15;51.24;99567.75;5070042;28;20017;-68
2023/05/05 11:05:13;;;;;;;4.13;2.53;;;;;;;23.17;51.09;99565.81;5069375;28;20028;-67
2023/05/05 11:07:40;;;;;;;6.15;3.13;;;;;;;23.17;51.22;99557.84;5072596;28;20324;-67
2023/05/05 11:10:07;;;;;;;8.10;3.85;;;;;;;23.17;51.25;99557.84;5073798;28;20036;-67
2023/05/05 11:13:01;;;;;;;7.07;3.50;;;;;;;23.17;51.16;99552.53;5073672;28;20025;-67
2023/05/05 11:15:26;;;;;;;4.75;3.05;;;;;;;23.17;51.34;99558.72;5066842;28;20021;-66
2023/05/05 11:17:53;;;;;;;6.25;3.17;;;;;;;23.19;51.19;99550.59;5074005;28;20050;-67
2023/05/05 11:20:42;;;;;;;6.18;3.40;;;;;;;23.18;51.03;99548.91;5073005;28;20036;-68
2023/05/05 11:23:07;;;;;;;5.80;2.67;;;;;;;23.19;51.14;99547.94;5069231;28;20373;-67
2023/05/05 11:25:36;;;;;;;6.57;2.70;;;;;;;23.20;51.01;99547.00;5071250;28;20082;-68
2023/05/05 11:28:08;;;;;;;6.07;2.65;;;;;;;23.22;51.18;99541.53;5073037;28;20043;-68
2023/05/05 11:31:03;;;;;;;6.90;2.97;;;;;;;23.20;51.23;99537.19;5055616;28;20025;-69
2023/05/05 11:33:38;;;;;;;6.65;3.38;;;;;;;23.23;51.17;99541.44;5071674;28;20039;-67
2023/05/05 11:36:07;;;;;;;7.07;3.80;;;;;;;23.23;51.20;99536.13;5071967;28;20021;-68
2023/05/05 11:38:57;;;;;;;6.43;3.22;;;;;;;23.25;51.09;99539.53;5072553;28;20032;-69